Terminal Aerodrome Forecast
Issued by NWS

Home | Current Version | Previous Version | Text Only | Print | Product List | Glossary On
Versions: 1 2 3 4 5 6 7 8 9 10 11 12 13 14 15 16 17 18 19 20 21 22 23
000
FTUS43 KBIS 260207 AAA
TAFJMS
TAF AMD
KJMS 260207Z 2602/2624 VRB05KT P6SM VCTS FEW050CB BKN100
      TEMPO 2602/2605 3SM -TSRA BKN040CB OVC080
     FM260500 25006KT P6SM VCTS BKN040CB BKN100
     FM261000 27007KT P6SM SCT110
     FM261400 27011KT P6SM SCT080
      AMD NOT SKED=

USA.gov is the U.S. government's official web portal to all federal, state and local government web resources and services.